sensor_id;sensor_type;location;lat;lon;timestamp;temperature;humidity
33761;DHT22;20084;47.912;19.044;2024-01-15T00:01:33;0.30;99.90
33761;DHT22;20084;47.912;19.044;2024-01-15T00:04:00;0.30;99.90
33761;DHT22;20084;47.912;19.044;2024-01-15T00:06:25;0.30;99.90
33761;DHT22;20084;47.912;19.044;2024-01-15T00:08:52;0.30;99.90
33761;DHT22;20084;47.912;19.044;2024-01-15T00:11:17;0.20;99.90
33761;DHT22;20084;47.912;19.044;2024-01-15T00:13:43;0.10;99.90
33761;DHT22;20084;47.912;19.044;2024-01-15T00:16:09;-0.10;99.90
33761;DHT22;20084;47.912;19.044;2024-01-15T00:18:34;-0.30;99.90
33761;DHT22;20084;47.912;19.044;2024-01-15T00:21:00;-0.60;99.90
33761;DHT22;20084;47.912;19.044;2024-01-15T00:23:25;-0.70;99.90
33761;DHT22;20084;47.912;19.044;2024-01-15T00:25:51;-0.80;99.90
33761;DHT22;20084;47.912;19.044;2024-01-15T00:28:17;-1.00;99.90
33761;DHT22;20084;47.912;19.044;2024-01-15T00:30:42;-1.10;99.90
33761;DHT22;20084;47.912;19.044;2024-01-15T00:33:08;-1.20;99.90
33761;DHT22;20084;47.912;19.044;2024-01-15T00:35:34;-1.30;99.90
33761;DHT22;20084;47.912;19.044;2024-01-15T00:37:59;-1.40;99.90
33761;DHT22;20084;47.912;19.044;2024-01-15T00:40:25;-1.40;99.90
33761;DHT22;20084;47.912;19.044;2024-01-15T00:42:51;-1.40;99.90
33761;DHT22;20084;47.912;19.044;2024-01-15T00:45:16;-1.50;99.90
33761;DHT22;20084;47.912;19.044;2024-01-15T00:47:42;-1.50;99.90
33761;DHT22;20084;47.912;19.044;2024-01-15T00:50:08;-1.30;99.90
33761;DHT22;20084;47.912;19.044;2024-01-15T00:52:34;-1.10;99.90
33761;DHT22;20084;47.912;19.044;2024-01-15T00:54:59;-0.80;99.90
33761;DHT22;20084;47.912;19.044;2024-01-15T00:57:25;-0.60;99.90
33761;DHT22;20084;47.912;19.044;2024-01-15T00:59:50;-0.40;99.90
33761;DHT22;20084;47.912;19.044;2024-01-15T01:02:16;-0.30;99.90
33761;DHT22;20084;47.912;19.044;2024-01-15T01:04:42;-0.20;99.90
33761;DHT22;20084;47.912;19.044;2024-01-15T01:07:07;-0.10;99.90
33761;DHT22;20084;47.912;19.044;2024-01-15T01:09:33;0.00;99.90
33761;DHT22;20084;47.912;19.044;2024-01-15T01:11:59;0.10;99.90
33761;DHT22;20084;47.912;19.044;2024-01-15T01:14:25;0.10;99.90
33761;DHT22;20084;47.912;19.044;2024-01-15T01:16:51;0.10;99.90
33761;DHT22;20084;47.912;19.044;2024-01-15T01:19:16;0.10;99.90
33761;DHT22;20084;47.912;19.044;2024-01-15T01:21:42;0.20;99.90
33761;DHT22;20084;47.912;19.044;2024-01-15T01:24:07;0.20;99.90
33761;DHT22;20084;47.912;19.044;2024-01-15T01:26:33;0.30;99.90
33761;DHT22;20084;47.912;19.044;2024-01-15T01:28:58;0.30;99.90
33761;DHT22;20084;47.912;19.044;2024-01-15T01:31:24;0.30;99.90
33761;DHT22;20084;47.912;19.044;2024-01-15T01:33:50;0.30;99.90
33761;DHT22;20084;47.912;19.044;2024-01-15T01:36:15;0.30;99.90
33761;DHT22;20084;47.912;19.044;2024-01-15T01:38:41;0.40;99.90
33761;DHT22;20084;47.912;19.044;2024-01-15T01:41:07;0.40;99.90
33761;DHT22;20084;47.912;19.044;2024-01-15T01:43:33;0.40;99.90
33761;DHT22;20084;47.912;19.044;2024-01-15T01:46:00;0.50;99.90
33761;DHT22;20084;47.912;19.044;2024-01-15T01:48:27;0.50;99.90
33761;DHT22;20084;47.912;19.044;2024-01-15T01:50:58;0.60;99.90
33761;DHT22;20084;47.912;19.044;2024-01-15T01:53:25;0.60;99.90
33761;DHT22;20084;47.912;19.044;2024-01-15T01:55:52;0.60;99.90
33761;DHT22;20084;47.912;19.044;2024-01-15T01:58:18;0.60;99.90
33761;DHT22;20084;47.912;19.044;2024-01-15T02:00:45;0.60;99.90
33761;DHT22;20084;47.912;19.044;2024-01-15T02:03:11;0.60;99.90
33761;DHT22;20084;47.912;19.044;2024-01-15T02:05:39;0.60;99.90
33761;DHT22;20084;47.912;19.044;2024-01-15T02:08:05;0.50;99.90
33761;DHT22;20084;47.912;19.044;2024-01-15T02:10:30;0.50;99.90
33761;DHT22;20084;47.912;19.044;2024-01-15T02:12:56;0.50;99.90
33761;DHT22;20084;47.912;19.044;2024-01-15T02:15:21;0.50;99.90
33761;DHT22;20084;47.912;19.044;2024-01-15T02:18:04;0.50;99.90
33761;DHT22;20084;47.912;19.044;2024-01-15T02:20:31;0.50;99.90
33761;DHT22;20084;47.912;19.044;2024-01-15T02:23:13;0.50;99.90
33761;DHT22;20084;47.912;19.044;2024-01-15T02:25:44;0.60;99.90
33761;DHT22;20084;47.912;19.044;2024-01-15T02:28:16;0.60;99.90
33761;DHT22;20084;47.912;19.044;2024-01-15T02:30:43;0.70;99.90
33761;DHT22;20084;47.912;19.044;2024-01-15T02:33:09;0.50;99.90
33761;DHT22;20084;47.912;19.044;2024-01-15T02:35:35;0.30;99.90
33761;DHT22;20084;47.912;19.044;2024-01-15T02:38:05;0.20;99.90
33761;DHT22;20084;47.912;19.044;2024-01-15T02:40:31;0.20;99.90
33761;DHT22;20084;47.912;19.044;2024-01-15T02:42:57;0.20;99.90
33761;DHT22;20084;47.912;19.044;2024-01-15T02:45:23;0.30;99.90
33761;DHT22;20084;47.912;19.044;2024-01-15T02:47:49;0.30;99.90
33761;DHT22;20084;47.912;19.044;2024-01-15T02:50:14;0.30;99.90
33761;DHT22;20084;47.912;19.044;2024-01-15T02:52:41;0.40;99.90
33761;DHT22;20084;47.912;19.044;2024-01-15T02:55:07;0.40;99.90
33761;DHT22;20084;47.912;19.044;2024-01-15T02:57:33;0.50;99.90
33761;DHT22;20084;47.912;19.044;2024-01-15T02:59:58;0.50;99.90
33761;DHT22;20084;47.912;19.044;2024-01-15T03:02:24;0.60;99.90
33761;DHT22;20084;47.912;19.044;2024-01-15T03:04:49;0.60;99.90
33761;DHT22;20084;47.912;19.044;2024-01-15T03:07:15;0.70;99.90
33761;DHT22;20084;47.912;19.044;2024-01-15T03:09:41;0.60;99.90
33761;DHT22;20084;47.912;19.044;2024-01-15T03:12:06;0.60;99.90
33761;DHT22;20084;47.912;19.044;2024-01-15T03:14:32;0.50;99.90
33761;DHT22;20084;47.912;19.044;2024-01-15T03:16:58;0.50;99.90
33761;DHT22;20084;47.912;19.044;2024-01-15T03:19:23;0.50;99.90
33761;DHT22;20084;47.912;19.044;2024-01-15T03:21:49;0.50;99.90
33761;DHT22;20084;47.912;19.044;2024-01-15T03:24:14;0.30;99.90
33761;DHT22;20084;47.912;19.044;2024-01-15T03:26:40;0.30;99.90
33761;DHT22;20084;47.912;19.044;2024-01-15T03:29:06;0.30;99.90
33761;DHT22;20084;47.912;19.044;2024-01-15T03:31:32;0.20;99.90
33761;DHT22;20084;47.912;19.044;2024-01-15T03:33:58;-0.20;99.90
33761;DHT22;20084;47.912;19.044;2024-01-15T03:36:23;-0.30;99.90
33761;DHT22;20084;47.912;19.044;2024-01-15T03:38:49;-0.40;99.90
33761;DHT22;20084;47.912;19.044;2024-01-15T03:41:14;-0.30;99.90
33761;DHT22;20084;47.912;19.044;2024-01-15T03:43:40;-0.30;99.90
33761;DHT22;20084;47.912;19.044;2024-01-15T03:46:06;-0.40;99.90
33761;DHT22;20084;47.912;19.044;2024-01-15T03:48:32;-0.50;99.90
33761;DHT22;20084;47.912;19.044;2024-01-15T03:50:57;-0.60;99.90
33761;DHT22;20084;47.912;19.044;2024-01-15T03:53:23;-0.60;99.90
33761;DHT22;20084;47.912;19.044;2024-01-15T03:55:49;-0.70;99.90
33761;DHT22;20084;47.912;19.044;2024-01-15T03:58:15;-0.70;99.90
33761;DHT22;20084;47.912;19.044;2024-01-15T04:00:41;-0.70;99.90
33761;DHT22;20084;47.912;19.044;2024-01-15T04:03:07;-0.80;99.90
33761;DHT22;20084;47.912;19.044;2024-01-15T04:05:32;-0.70;99.90
33761;DHT22;20084;47.912;19.044;2024-01-15T04:07:58;-0.80;99.90
33761;DHT22;20084;47.912;19.044;2024-01-15T04:10:24;-0.80;99.90
33761;DHT22;20084;47.912;19.044;2024-01-15T04:12:49;-0.80;99.90
33761;DHT22;20084;47.912;19.044;2024-01-15T04:15:15;-0.80;99.90
33761;DHT22;20084;47.912;19.044;2024-01-15T04:17:40;-0.70;99.90
33761;DHT22;20084;47.912;19.044;2024-01-15T04:20:07;-0.70;99.90
33761;DHT22;20084;47.912;19.044;2024-01-15T04:22:36;-0.60;99.90
33761;DHT22;20084;47.912;19.044;2024-01-15T04:25:02;-0.50;99.90
33761;DHT22;20084;47.912;19.044;2024-01-15T04:27:28;-0.40;99.90
33761;DHT22;20084;47.912;19.044;2024-01-15T04:29:54;-0.30;99.90
33761;DHT22;20084;47.912;19.044;2024-01-15T04:32:20;-0.30;99.90
33761;DHT22;20084;47.912;19.044;2024-01-15T04:34:45;-0.40;99.90
33761;DHT22;20084;47.912;19.044;2024-01-15T04:37:11;-0.30;99.90
33761;DHT22;20084;47.912;19.044;2024-01-15T04:39:37;-0.20;99.90
33761;DHT22;20084;47.912;19.044;2024-01-15T04:42:03;-0.40;99.90
33761;DHT22;20084;47.912;19.044;2024-01-15T04:44:28;-0.60;99.90
33761;DHT22;20084;47.912;19.044;2024-01-15T04:46:54;-0.80;99.90
33761;DHT22;20084;47.912;19.044;2024-01-15T04:49:20;-0.70;99.90
33761;DHT22;20084;47.912;19.044;2024-01-15T04:51:45;-0.50;99.90
33761;DHT22;20084;47.912;19.044;2024-01-15T04:54:11;-0.50;99.90
33761;DHT22;20084;47.912;19.044;2024-01-15T04:56:37;-0.40;99.90
33761;DHT22;20084;47.912;19.044;2024-01-15T04:59:03;-0.50;99.90
33761;DHT22;20084;47.912;19.044;2024-01-15T05:01:32;-0.60;99.90
33761;DHT22;20084;47.912;19.044;2024-01-15T05:03:58;-0.60;99.90
33761;DHT22;20084;47.912;19.044;2024-01-15T05:06:24;-0.60;99.90
33761;DHT22;20084;47.912;19.044;2024-01-15T05:08:49;-0.60;99.90
33761;DHT22;20084;47.912;19.044;2024-01-15T05:11:15;-0.60;99.90
33761;DHT22;20084;47.912;19.044;2024-01-15T05:13:40;-0.80;99.90
33761;DHT22;20084;47.912;19.044;2024-01-15T05:16:06;-0.80;99.90
33761;DHT22;20084;47.912;19.044;2024-01-15T05:18:32;-0.80;99.90
33761;DHT22;20084;47.912;19.044;2024-01-15T05:20:57;-0.60;99.90
33761;DHT22;20084;47.912;19.044;2024-01-15T05:23:23;-0.50;99.90
33761;DHT22;20084;47.912;19.044;2024-01-15T05:25:48;-0.40;99.90
33761;DHT22;20084;47.912;19.044;2024-01-15T05:28:14;-0.30;99.90
33761;DHT22;20084;47.912;19.044;2024-01-15T05:30:40;-0.20;99.90
33761;DHT22;20084;47.912;19.044;2024-01-15T05:33:05;-0.10;99.90
33761;DHT22;20084;47.912;19.044;2024-01-15T05:35:33;0.00;99.90
33761;DHT22;20084;47.912;19.044;2024-01-15T05:37:58;0.10;99.90
33761;DHT22;20084;47.912;19.044;2024-01-15T05:40:24;0.10;99.90
33761;DHT22;20084;47.912;19.044;2024-01-15T05:42:49;0.10;99.90
33761;DHT22;20084;47.912;19.044;2024-01-15T05:45:15;0.10;99.90
33761;DHT22;20084;47.912;19.044;2024-01-15T05:47:41;0.10;99.90
33761;DHT22;20084;47.912;19.044;2024-01-15T05:50:07;0.10;99.90
33761;DHT22;20084;47.912;19.044;2024-01-15T05:52:32;0.10;99.90
33761;DHT22;20084;47.912;19.044;2024-01-15T05:54:58;0.20;99.90
33761;DHT22;20084;47.912;19.044;2024-01-15T05:57:23;0.30;99.90
33761;DHT22;20084;47.912;19.044;2024-01-15T05:59:49;0.30;99.90
33761;DHT22;20084;47.912;19.044;2024-01-15T06:02:15;0.40;99.90
33761;DHT22;20084;47.912;19.044;2024-01-15T06:04:40;0.30;99.90
33761;DHT22;20084;47.912;19.044;2024-01-15T06:07:06;0.40;99.90
33761;DHT22;20084;47.912;19.044;2024-01-15T06:09:31;0.50;99.90
33761;DHT22;20084;47.912;19.044;2024-01-15T06:11:57;0.50;99.90
33761;DHT22;20084;47.912;19.044;2024-01-15T06:14:23;0.60;99.90
33761;DHT22;20084;47.912;19.044;2024-01-15T06:16:48;0.60;99.90
33761;DHT22;20084;47.912;19.044;2024-01-15T06:19:14;0.60;99.90
33761;DHT22;20084;47.912;19.044;2024-01-15T06:21:40;0.60;99.90
33761;DHT22;20084;47.912;19.044;2024-01-15T06:24:06;0.50;99.90
33761;DHT22;20084;47.912;19.044;2024-01-15T06:26:31;0.60;99.90
33761;DHT22;20084;47.912;19.044;2024-01-15T06:28:57;0.80;99.90
33761;DHT22;20084;47.912;19.044;2024-01-15T06:31:22;0.70;99.90
33761;DHT22;20084;47.912;19.044;2024-01-15T06:33:48;1.00;99.90
33761;DHT22;20084;47.912;19.044;2024-01-15T06:36:14;0.90;99.90
33761;DHT22;20084;47.912;19.044;2024-01-15T06:38:43;0.70;99.90
33761;DHT22;20084;47.912;19.044;2024-01-15T06:41:09;0.70;99.90
33761;DHT22;20084;47.912;19.044;2024-01-15T06:43:35;0.70;99.90
33761;DHT22;20084;47.912;19.044;2024-01-15T06:46:00;0.70;99.90
33761;DHT22;20084;47.912;19.044;2024-01-15T06:48:26;0.80;99.90
33761;DHT22;20084;47.912;19.044;2024-01-15T06:50:52;1.00;99.90
33761;DHT22;20084;47.912;19.044;2024-01-15T06:53:17;1.10;99.90
33761;DHT22;20084;47.912;19.044;2024-01-15T06:55:43;1.40;99.90
33761;DHT22;20084;47.912;19.044;2024-01-15T06:58:09;1.30;99.90
33761;DHT22;20084;47.912;19.044;2024-01-15T07:00:34;1.30;99.90
33761;DHT22;20084;47.912;19.044;2024-01-15T07:03:00;1.10;99.90
33761;DHT22;20084;47.912;19.044;2024-01-15T07:05:25;1.10;99.90
33761;DHT22;20084;47.912;19.044;2024-01-15T07:07:51;1.20;99.90
33761;DHT22;20084;47.912;19.044;2024-01-15T07:10:17;1.20;99.90
33761;DHT22;20084;47.912;19.044;2024-01-15T07:12:43;1.10;99.90
33761;DHT22;20084;47.912;19.044;2024-01-15T07:15:09;1.10;99.90
33761;DHT22;20084;47.912;19.044;2024-01-15T07:17:35;1.20;99.90
33761;DHT22;20084;47.912;19.044;2024-01-15T07:20:01;1.10;99.90
33761;DHT22;20084;47.912;19.044;2024-01-15T07:22:27;1.20;99.90
33761;DHT22;20084;47.912;19.044;2024-01-15T07:24:53;1.20;99.90
33761;DHT22;20084;47.912;19.044;2024-01-15T07:27:18;1.20;99.90
33761;DHT22;20084;47.912;19.044;2024-01-15T07:29:44;1.30;99.90
33761;DHT22;20084;47.912;19.044;2024-01-15T07:32:10;1.20;99.90
33761;DHT22;20084;47.912;19.044;2024-01-15T07:34:35;1.20;99.90
33761;DHT22;20084;47.912;19.044;2024-01-15T07:37:02;1.20;99.90
33761;DHT22;20084;47.912;19.044;2024-01-15T07:39:27;1.20;99.90
33761;DHT22;20084;47.912;19.044;2024-01-15T07:41:54;1.20;99.90
33761;DHT22;20084;47.912;19.044;2024-01-15T07:44:20;1.30;99.90
33761;DHT22;20084;47.912;19.044;2024-01-15T07:46:48;1.30;99.90
33761;DHT22;20084;47.912;19.044;2024-01-15T07:49:14;1.30;99.90
33761;DHT22;20084;47.912;19.044;2024-01-15T07:51:40;1.30;99.90
33761;DHT22;20084;47.912;19.044;2024-01-15T07:54:06;1.40;99.90
33761;DHT22;20084;47.912;19.044;2024-01-15T07:56:32;1.50;99.90
33761;DHT22;20084;47.912;19.044;2024-01-15T07:58:58;1.60;99.90
33761;DHT22;20084;47.912;19.044;2024-01-15T08:01:24;1.70;99.90
33761;DHT22;20084;47.912;19.044;2024-01-15T08:03:50;1.70;99.90
33761;DHT22;20084;47.912;19.044;2024-01-15T08:06:15;1.70;99.90
33761;DHT22;20084;47.912;19.044;2024-01-15T08:08:41;1.70;99.90
33761;DHT22;20084;47.912;19.044;2024-01-15T08:11:07;1.70;99.90
33761;DHT22;20084;47.912;19.044;2024-01-15T08:13:32;1.70;99.90
33761;DHT22;20084;47.912;19.044;2024-01-15T08:15:58;1.80;99.90
33761;DHT22;20084;47.912;19.044;2024-01-15T08:18:24;1.90;99.90
33761;DHT22;20084;47.912;19.044;2024-01-15T08:20:50;1.90;99.90
33761;DHT22;20084;47.912;19.044;2024-01-15T08:23:17;1.90;99.90
33761;DHT22;20084;47.912;19.044;2024-01-15T08:25:43;1.90;99.90
33761;DHT22;20084;47.912;19.044;2024-01-15T08:28:08;1.90;99.90
33761;DHT22;20084;47.912;19.044;2024-01-15T08:30:34;1.90;99.90
33761;DHT22;20084;47.912;19.044;2024-01-15T08:33:00;1.90;99.90
33761;DHT22;20084;47.912;19.044;2024-01-15T08:35:25;2.10;99.90
33761;DHT22;20084;47.912;19.044;2024-01-15T08:37:52;2.20;99.90
33761;DHT22;20084;47.912;19.044;2024-01-15T08:40:18;2.30;99.90
33761;DHT22;20084;47.912;19.044;2024-01-15T08:42:44;2.60;99.90
33761;DHT22;20084;47.912;19.044;2024-01-15T08:45:14;2.90;99.90
33761;DHT22;20084;47.912;19.044;2024-01-15T08:47:39;3.30;99.90
33761;DHT22;20084;47.912;19.044;2024-01-15T08:50:06;3.30;99.90
33761;DHT22;20084;47.912;19.044;2024-01-15T08:52:35;3.40;99.90
33761;DHT22;20084;47.912;19.044;2024-01-15T08:55:01;3.20;99.90
33761;DHT22;20084;47.912;19.044;2024-01-15T08:57:27;3.40;99.90
33761;DHT22;20084;47.912;19.044;2024-01-15T08:59:52;3.30;99.90
33761;DHT22;20084;47.912;19.044;2024-01-15T09:02:18;3.40;99.90
33761;DHT22;20084;47.912;19.044;2024-01-15T09:04:43;3.70;99.90
33761;DHT22;20084;47.912;19.044;2024-01-15T09:07:09;3.90;99.90
33761;DHT22;20084;47.912;19.044;2024-01-15T09:09:34;4.10;99.90
33761;DHT22;20084;47.912;19.044;2024-01-15T09:12:00;3.90;99.90
33761;DHT22;20084;47.912;19.044;2024-01-15T09:14:26;4.00;99.90
33761;DHT22;20084;47.912;19.044;2024-01-15T09:16:52;4.00;99.90
33761;DHT22;20084;47.912;19.044;2024-01-15T09:19:18;4.00;99.90
33761;DHT22;20084;47.912;19.044;2024-01-15T09:21:44;4.00;99.90
33761;DHT22;20084;47.912;19.044;2024-01-15T09:24:09;3.90;99.90
33761;DHT22;20084;47.912;19.044;2024-01-15T09:26:35;3.70;99.90
33761;DHT22;20084;47.912;19.044;2024-01-15T09:29:01;3.60;99.90
33761;DHT22;20084;47.912;19.044;2024-01-15T09:31:26;3.50;99.90
33761;DHT22;20084;47.912;19.044;2024-01-15T09:33:52;3.60;99.90
33761;DHT22;20084;47.912;19.044;2024-01-15T09:36:22;3.50;99.90
33761;DHT22;20084;47.912;19.044;2024-01-15T09:38:48;3.50;99.90
33761;DHT22;20084;47.912;19.044;2024-01-15T09:41:14;3.60;99.90
33761;DHT22;20084;47.912;19.044;2024-01-15T09:43:40;3.70;99.90
33761;DHT22;20084;47.912;19.044;2024-01-15T09:46:06;3.80;99.90
33761;DHT22;20084;47.912;19.044;2024-01-15T09:48:31;3.90;99.90
33761;DHT22;20084;47.912;19.044;2024-01-15T09:51:03;4.00;99.90
33761;DHT22;20084;47.912;19.044;2024-01-15T09:53:31;4.10;99.90
33761;DHT22;20084;47.912;19.044;2024-01-15T09:55:58;4.20;99.90
33761;DHT22;20084;47.912;19.044;2024-01-15T09:58:23;4.30;99.90
33761;DHT22;20084;47.912;19.044;2024-01-15T10:00:50;4.30;99.90
33761;DHT22;20084;47.912;19.044;2024-01-15T10:03:16;4.20;99.90
33761;DHT22;20084;47.912;19.044;2024-01-15T10:05:43;4.20;99.90
33761;DHT22;20084;47.912;19.044;2024-01-15T10:08:09;4.30;99.90
33761;DHT22;20084;47.912;19.044;2024-01-15T10:10:36;4.40;99.90
33761;DHT22;20084;47.912;19.044;2024-01-15T10:13:04;4.50;99.90
33761;DHT22;20084;47.912;19.044;2024-01-15T10:15:34;4.60;99.90
33761;DHT22;20084;47.912;19.044;2024-01-15T10:17:59;4.70;99.90
33761;DHT22;20084;47.912;19.044;2024-01-15T10:20:25;4.80;99.90
33761;DHT22;20084;47.912;19.044;2024-01-15T10:22:50;4.70;99.90
33761;DHT22;20084;47.912;19.044;2024-01-15T10:25:16;4.50;99.90
33761;DHT22;20084;47.912;19.044;2024-01-15T10:28:02;4.30;99.90
33761;DHT22;20084;47.912;19.044;2024-01-15T10:30:27;4.30;99.90
33761;DHT22;20084;47.912;19.044;2024-01-15T10:33:00;4.30;99.90
33761;DHT22;20084;47.912;19.044;2024-01-15T10:35:30;4.30;99.90
33761;DHT22;20084;47.912;19.044;2024-01-15T10:37:56;4.30;99.90
33761;DHT22;20084;47.912;19.044;2024-01-15T10:40:22;4.40;99.90
33761;DHT22;20084;47.912;19.044;2024-01-15T10:42:48;4.30;99.90
33761;DHT22;20084;47.912;19.044;2024-01-15T10:45:14;4.30;99.90
33761;DHT22;20084;47.912;19.044;2024-01-15T10:47:41;4.30;99.90
33761;DHT22;20084;47.912;19.044;2024-01-15T10:50:07;4.50;99.90
33761;DHT22;20084;47.912;19.044;2024-01-15T10:52:38;4.50;99.90
33761;DHT22;20084;47.912;19.044;2024-01-15T10:55:07;4.60;99.90
33761;DHT22;20084;47.912;19.044;2024-01-15T10:57:35;4.50;99.90
33761;DHT22;20084;47.912;19.044;2024-01-15T11:00:01;4.50;99.90
33761;DHT22;20084;47.912;19.044;2024-01-15T11:02:31;4.60;99.90
33761;DHT22;20084;47.912;19.044;2024-01-15T11:04:59;4.70;99.90
33761;DHT22;20084;47.912;19.044;2024-01-15T11:07:24;4.60;99.90
33761;DHT22;20084;47.912;19.044;2024-01-15T11:09:51;4.70;99.90
33761;DHT22;20084;47.912;19.044;2024-01-15T11:12:17;4.70;99.90
33761;DHT22;20084;47.912;19.044;2024-01-15T11:14:49;4.80;99.90
33761;DHT22;20084;47.912;19.044;2024-01-15T11:17:16;4.70;99.90
33761;DHT22;20084;47.912;19.044;2024-01-15T11:19:46;4.70;99.90
33761;DHT22;20084;47.912;19.044;2024-01-15T11:25:03;4.60;99.90
33761;DHT22;20084;47.912;19.044;2024-01-15T11:27:44;4.50;99.90
33761;DHT22;20084;47.912;19.044;2024-01-15T11:30:11;4.30;99.90
33761;DHT22;20084;47.912;19.044;2024-01-15T11:32:38;4.20;99.90
33761;DHT22;20084;47.912;19.044;2024-01-15T11:35:07;4.30;99.90
33761;DHT22;20084;47.912;19.044;2024-01-15T11:43:02;4.20;99.90
33761;DHT22;20084;47.912;19.044;2024-01-15T11:45:30;4.20;99.90
33761;DHT22;20084;47.912;19.044;2024-01-15T11:48:09;4.30;99.90
33761;DHT22;20084;47.912;19.044;2024-01-15T11:50:48;4.30;99.90
33761;DHT22;20084;47.912;19.044;2024-01-15T11:53:25;4.20;99.90
33761;DHT22;20084;47.912;19.044;2024-01-15T11:55:52;4.20;99.90
33761;DHT22;20084;47.912;19.044;2024-01-15T11:58:21;4.20;99.90
33761;DHT22;20084;47.912;19.044;2024-01-15T12:00:51;4.30;99.90
33761;DHT22;20084;47.912;19.044;2024-01-15T12:03:23;4.40;99.90
33761;DHT22;20084;47.912;19.044;2024-01-15T12:05:48;4.40;99.90
33761;DHT22;20084;47.912;19.044;2024-01-15T12:08:14;4.40;99.90
33761;DHT22;20084;47.912;19.044;2024-01-15T12:10:40;4.50;99.90
33761;DHT22;20084;47.912;19.044;2024-01-15T12:13:15;4.50;99.90
33761;DHT22;20084;47.912;19.044;2024-01-15T12:15:42;4.40;99.90
33761;DHT22;20084;47.912;19.044;2024-01-15T12:18:09;4.40;99.90
33761;DHT22;20084;47.912;19.044;2024-01-15T12:20:36;4.40;99.90
33761;DHT22;20084;47.912;19.044;2024-01-15T12:23:02;4.40;99.90
33761;DHT22;20084;47.912;19.044;2024-01-15T12:25:32;4.50;99.90
33761;DHT22;20084;47.912;19.044;2024-01-15T12:27:59;4.50;99.90
33761;DHT22;20084;47.912;19.044;2024-01-15T12:30:29;4.50;99.90
33761;DHT22;20084;47.912;19.044;2024-01-15T12:32:57;4.50;99.90
33761;DHT22;20084;47.912;19.044;2024-01-15T12:35:24;4.40;99.90
33761;DHT22;20084;47.912;19.044;2024-01-15T12:37:51;4.50;99.90
33761;DHT22;20084;47.912;19.044;2024-01-15T12:40:20;4.50;99.90
33761;DHT22;20084;47.912;19.044;2024-01-15T12:42:46;4.50;99.90
33761;DHT22;20084;47.912;19.044;2024-01-15T12:45:13;4.60;99.90
33761;DHT22;20084;47.912;19.044;2024-01-15T12:47:39;4.70;99.90
33761;DHT22;20084;47.912;19.044;2024-01-15T12:50:12;4.70;99.90
33761;DHT22;20084;47.912;19.044;2024-01-15T12:52:39;4.70;99.90
33761;DHT22;20084;47.912;19.044;2024-01-15T12:55:06;4.80;99.90
33761;DHT22;20084;47.912;19.044;2024-01-15T12:57:32;4.90;99.90
33761;DHT22;20084;47.912;19.044;2024-01-15T12:59:58;4.90;99.90
33761;DHT22;20084;47.912;19.044;2024-01-15T13:02:24;4.90;99.90
33761;DHT22;20084;47.912;19.044;2024-01-15T13:04:49;4.80;99.90
33761;DHT22;20084;47.912;19.044;2024-01-15T13:07:15;4.80;99.90
33761;DHT22;20084;47.912;19.044;2024-01-15T13:09:41;4.80;99.90
33761;DHT22;20084;47.912;19.044;2024-01-15T13:12:06;4.90;99.90
33761;DHT22;20084;47.912;19.044;2024-01-15T13:14:32;4.90;99.90
33761;DHT22;20084;47.912;19.044;2024-01-15T13:17:01;4.90;99.90
33761;DHT22;20084;47.912;19.044;2024-01-15T13:19:26;5.00;99.90
33761;DHT22;20084;47.912;19.044;2024-01-15T13:21:52;4.90;99.90
33761;DHT22;20084;47.912;19.044;2024-01-15T13:24:19;4.90;99.90
33761;DHT22;20084;47.912;19.044;2024-01-15T13:26:44;5.00;99.90
33761;DHT22;20084;47.912;19.044;2024-01-15T13:29:10;4.90;99.90
33761;DHT22;20084;47.912;19.044;2024-01-15T13:31:36;5.00;99.90
33761;DHT22;20084;47.912;19.044;2024-01-15T13:34:02;5.10;99.90
33761;DHT22;20084;47.912;19.044;2024-01-15T13:36:28;5.10;99.90
33761;DHT22;20084;47.912;19.044;2024-01-15T13:38:54;5.00;99.90
33761;DHT22;20084;47.912;19.044;2024-01-15T13:41:20;4.80;99.90
33761;DHT22;20084;47.912;19.044;2024-01-15T13:43:50;4.70;99.90
33761;DHT22;20084;47.912;19.044;2024-01-15T13:46:18;4.80;99.90
33761;DHT22;20084;47.912;19.044;2024-01-15T13:48:44;5.00;99.90
33761;DHT22;20084;47.912;19.044;2024-01-15T13:51:10;5.00;99.90
33761;DHT22;20084;47.912;19.044;2024-01-15T13:53:38;5.40;99.90
33761;DHT22;20084;47.912;19.044;2024-01-15T13:56:04;5.70;99.90
33761;DHT22;20084;47.912;19.044;2024-01-15T13:58:30;6.00;99.90
33761;DHT22;20084;47.912;19.044;2024-01-15T14:00:56;5.90;99.90
33761;DHT22;20084;47.912;19.044;2024-01-15T14:03:22;6.30;99.90
33761;DHT22;20084;47.912;19.044;2024-01-15T14:05:47;7.30;99.90
33761;DHT22;20084;47.912;19.044;2024-01-15T14:08:13;8.10;97.80
33761;DHT22;20084;47.912;19.044;2024-01-15T14:10:38;8.60;96.10
33761;DHT22;20084;47.912;19.044;2024-01-15T14:13:04;8.30;94.30
33761;DHT22;20084;47.912;19.044;2024-01-15T14:15:29;7.80;95.10
33761;DHT22;20084;47.912;19.044;2024-01-15T14:17:55;7.50;95.60
33761;DHT22;20084;47.912;19.044;2024-01-15T14:20:21;7.60;94.90
33761;DHT22;20084;47.912;19.044;2024-01-15T14:22:47;7.50;94.60
33761;DHT22;20084;47.912;19.044;2024-01-15T14:25:13;7.40;95.20
33761;DHT22;20084;47.912;19.044;2024-01-15T14:27:39;7.50;95.00
33761;DHT22;20084;47.912;19.044;2024-01-15T14:30:05;7.70;94.50
33761;DHT22;20084;47.912;19.044;2024-01-15T14:32:31;7.40;94.20
33761;DHT22;20084;47.912;19.044;2024-01-15T14:34:57;7.10;94.80
33761;DHT22;20084;47.912;19.044;2024-01-15T14:37:22;6.50;95.20
33761;DHT22;20084;47.912;19.044;2024-01-15T14:39:48;6.10;96.10
33761;DHT22;20084;47.912;19.044;2024-01-15T14:42:13;5.90;97.40
33761;DHT22;20084;47.912;19.044;2024-01-15T14:44:39;5.70;97.50
33761;DHT22;20084;47.912;19.044;2024-01-15T14:47:06;5.50;97.60
33761;DHT22;20084;47.912;19.044;2024-01-15T14:49:33;5.30;98.40
33761;DHT22;20084;47.912;19.044;2024-01-15T14:51:59;5.20;98.20
33761;DHT22;20084;47.912;19.044;2024-01-15T14:54:24;5.10;98.40
33761;DHT22;20084;47.912;19.044;2024-01-15T14:56:51;5.00;98.60
33761;DHT22;20084;47.912;19.044;2024-01-15T14:59:17;4.80;99.30
33761;DHT22;20084;47.912;19.044;2024-01-15T15:01:42;4.80;99.50
33761;DHT22;20084;47.912;19.044;2024-01-15T15:04:08;4.70;99.90
33761;DHT22;20084;47.912;19.044;2024-01-15T15:06:36;4.40;99.90
33761;DHT22;20084;47.912;19.044;2024-01-15T15:09:02;4.20;99.90
33761;DHT22;20084;47.912;19.044;2024-01-15T15:11:34;4.20;99.90
33761;DHT22;20084;47.912;19.044;2024-01-15T15:14:00;4.10;99.90
33761;DHT22;20084;47.912;19.044;2024-01-15T15:16:26;3.90;99.90
33761;DHT22;20084;47.912;19.044;2024-01-15T15:18:52;3.70;99.90
33761;DHT22;20084;47.912;19.044;2024-01-15T15:21:18;3.60;99.90
33761;DHT22;20084;47.912;19.044;2024-01-15T15:23:44;3.50;99.90
33761;DHT22;20084;47.912;19.044;2024-01-15T15:26:09;3.40;99.90
33761;DHT22;20084;47.912;19.044;2024-01-15T15:28:35;3.30;99.90
33761;DHT22;20084;47.912;19.044;2024-01-15T15:31:02;3.30;99.90